Terminal Aerodrome Forecast
Issued by NWS North Platte, NE

Home | Current Version | Previous Version | Text Only | Print | Product List | Glossary Off
Versions: 1 2 3 4 5 6 7 8 9 10 11 12 13 14 15 16 17 18

000
FTUS43 KLBF 232056 AAA
TAFVTN
TAF AMD
KVTN 232056Z 2321/2418 04016G24KT 1/2SM SN BLSN FZFG FEW009 OVC015
     FM240300 01016G24KT 1SM -SN BLSN OVC008
     FM241200 36014G20KT 2SM -SN BKN008 OVC015
     FM241500 35014G20KT 3SM -SN OVC015=

USA.gov is the U.S. government's official web portal to all federal, state and local government web resources and services.